Time;durP1;ratioP1;P1;durP2;ratioP2;P2;SDS_P1;SDS_P2;PMS_P1;PMS_P2;Temp;Humidity;BMP_temperature;BMP_pressure;BME280_temperature;BME280_humidity;BME280_pressure;Samples;Min_cycle;Max_cycle;Signal;HPM_P1;HPM_P2
2024/04/06 00:06:51;;;;;;;;;;;15.00;99.90;;;;;;6627935;89;20092;-79
2024/04/06 00:16:51;;;;;;;;;;;15.00;99.90;;;;;;6634944;88;20054;-78
2024/04/06 00:26:52;;;;;;;;;;;15.00;99.90;;;;;;6625202;88;20168;-78
2024/04/06 00:36:54;;;;;;;;;;;15.00;99.90;;;;;;6622863;89;20102;-78
2024/04/06 00:46:55;;;;;;;;;;;15.10;99.90;;;;;;6620115;89;20104;-78
2024/04/06 00:56:55;;;;;;;;;;;15.20;99.90;;;;;;6619229;89;20059;-79
2024/04/06 01:06:56;;;;;;;;;;;15.20;99.90;;;;;;6621051;89;20059;-78
2024/04/06 01:16:57;;;;;;;;;;;15.20;99.90;;;;;;6619294;89;20074;-77
2024/04/06 01:26:58;;;;;;;;;;;15.20;99.90;;;;;;6619090;89;20078;-78
2024/04/06 01:36:58;;;;;;;;;;;15.20;99.90;;;;;;6619393;89;20067;-79
2024/04/06 01:46:59;;;;;;;;;;;14.90;99.90;;;;;;6620506;89;20060;-78
2024/04/06 02:07:03;;;;;;;;;;;14.70;99.90;;;;;;6659078;89;20096;-80
2024/04/06 02:17:03;;;;;;;;;;;14.60;99.90;;;;;;6656257;89;20798;-79
2024/04/06 02:27:04;;;;;;;;;;;14.60;99.90;;;;;;6656151;89;20071;-80
2024/04/06 02:37:04;;;;;;;;;;;14.50;99.90;;;;;;6655294;89;20148;-80
2024/04/06 02:47:05;;;;;;;;;;;14.50;99.90;;;;;;6651369;89;20062;-79
2024/04/06 02:57:05;;;;;;;;;;;14.30;99.90;;;;;;6654039;89;20128;-80
2024/04/06 03:07:06;;;;;;;;;;;14.30;99.90;;;;;;6670602;89;20052;-79
2024/04/06 03:17:06;;;;;;;;;;;14.30;99.90;;;;;;6670206;89;20139;-80
2024/04/06 03:27:07;;;;;;;;;;;13.90;99.90;;;;;;6668801;89;20652;-80
2024/04/06 03:37:07;;;;;;;;;;;13.70;99.90;;;;;;6669835;89;20102;-80
2024/04/06 03:47:08;;;;;;;;;;;14.00;99.90;;;;;;6669701;89;20085;-80
2024/04/06 03:57:09;;;;;;;;;;;13.60;99.90;;;;;;6669239;89;20073;-80
2024/04/06 04:07:09;;;;;;;;;;;13.40;99.90;;;;;;6668207;89;20162;-79
2024/04/06 04:17:10;;;;;;;;;;;13.00;99.90;;;;;;6670389;89;20186;-79
2024/04/06 04:27:10;;;;;;;;;;;13.30;99.90;;;;;;6670547;89;20193;-80
2024/04/06 04:37:10;;;;;;;;;;;13.40;99.90;;;;;;6671674;89;20102;-80
2024/04/06 04:47:11;;;;;;;;;;;13.40;99.90;;;;;;6671796;89;20075;-80
2024/04/06 04:57:11;;;;;;;;;;;13.30;99.90;;;;;;6667362;89;20076;-79
2024/04/06 05:07:12;;;;;;;;;;;13.40;99.90;;;;;;6670189;89;20056;-80
2024/04/06 05:17:13;;;;;;;;;;;13.00;99.90;;;;;;6671367;89;20128;-80
2024/04/06 05:27:14;;;;;;;;;;;13.00;99.90;;;;;;6665265;89;20064;-79
2024/04/06 05:37:14;;;;;;;;;;;13.30;99.90;;;;;;6670120;89;20060;-80
2024/04/06 05:47:14;;;;;;;;;;;13.60;99.90;;;;;;6670292;89;20078;-80
2024/04/06 05:57:15;;;;;;;;;;;14.00;99.90;;;;;;6671461;89;20502;-79
2024/04/06 06:07:16;;;;;;;;;;;14.20;99.90;;;;;;6671759;89;20516;-80
2024/04/06 06:17:19;;;;;;;;;;;14.40;99.90;;;;;;6670623;89;20093;-80
2024/04/06 06:27:20;;;;;;;;;;;14.50;99.90;;;;;;6671488;89;20057;-79
2024/04/06 06:47:28;;;;;;;;;;;15.00;99.90;;;;;;6842594;77;20132;31
2024/04/06 07:17:43;;;;;;;;;;;15.90;99.90;;;;;;6303395;77;20132;31
2024/04/06 07:37:53;;;;;;;;;;;17.00;99.90;;;;;;6955143;76;20109;-82
2024/04/06 07:47:55;;;;;;;;;;;17.50;99.90;;;;;;7400374;77;20133;31
2024/04/06 08:18:43;;;;;;;;;;;19.20;99.90;;;;;;6726665;88;20104;-79
2024/04/06 08:28:44;;;;;;;;;;;20.20;99.90;;;;;;6725660;88;20061;-81
2024/04/06 08:38:44;;;;;;;;;;;20.70;99.90;;;;;;6724401;88;20452;-77
2024/04/06 08:48:46;;;;;;;;;;;21.20;99.90;;;;;;6716014;88;20124;-78
2024/04/06 08:58:46;;;;;;;;;;;21.50;99.90;;;;;;6717523;88;20051;-76
2024/04/06 09:08:47;;;;;;;;;;;21.40;99.90;;;;;;6716026;88;20548;-76
2024/04/06 09:18:48;;;;;;;;;;;21.40;99.90;;;;;;6716560;88;20071;-82
2024/04/06 09:28:52;;;;;;;;;;;21.70;99.90;;;;;;6713475;88;20096;-76
2024/04/06 09:38:54;;;;;;;;;;;22.20;99.90;;;;;;6717247;88;20693;-76
2024/04/06 09:48:54;;;;;;;;;;;22.50;99.90;;;;;;6719118;88;20082;-76
2024/04/06 09:58:55;;;;;;;;;;;23.10;99.90;;;;;;6720107;88;20217;-79
2024/04/06 10:08:56;;;;;;;;;;;22.50;99.90;;;;;;6719817;88;20074;-79
2024/04/06 10:18:58;;;;;;;;;;;23.30;99.90;;;;;;6720043;88;20119;-79
2024/04/06 10:28:59;;;;;;;;;;;23.20;99.90;;;;;;6726124;88;20081;-80
2024/04/06 10:39:00;;;;;;;;;;;23.40;99.90;;;;;;6717713;88;20773;-78
2024/04/06 10:49:01;;;;;;;;;;;24.10;99.00;;;;;;6726305;88;20190;-78
2024/04/06 10:59:01;;;;;;;;;;;24.60;97.80;;;;;;6717969;88;20125;-78
2024/04/06 11:09:05;;;;;;;;;;;24.30;97.50;;;;;;6725116;88;20071;-77
2024/04/06 11:19:06;;;;;;;;;;;24.50;97.00;;;;;;6713295;88;20328;-77
2024/04/06 11:29:07;;;;;;;;;;;25.10;96.40;;;;;;6719025;88;20105;-77
2024/04/06 11:39:07;;;;;;;;;;;25.70;95.10;;;;;;6715198;88;20059;-75
2024/04/06 11:49:08;;;;;;;;;;;26.00;94.60;;;;;;6712505;88;20345;-77
2024/04/06 11:59:08;;;;;;;;;;;26.40;94.20;;;;;;6712062;88;20057;-77
2024/04/06 12:09:09;;;;;;;;;;;27.00;93.80;;;;;;6711026;88;20196;-75
2024/04/06 12:19:10;;;;;;;;;;;26.90;91.60;;;;;;6713712;88;20066;-74
2024/04/06 12:29:10;;;;;;;;;;;27.00;90.40;;;;;;6711905;88;20100;-74
2024/04/06 12:39:11;;;;;;;;;;;27.60;91.10;;;;;;6724281;88;20061;-76
2024/04/06 12:49:11;;;;;;;;;;;27.40;91.60;;;;;;6711432;88;20100;-74
2024/04/06 12:59:12;;;;;;;;;;;27.60;92.10;;;;;;6709564;88;20567;-73
2024/04/06 13:09:12;;;;;;;;;;;26.90;92.30;;;;;;6714922;88;20067;-75
2024/04/06 13:19:12;;;;;;;;;;;27.00;92.20;;;;;;6713042;88;20809;-74
2024/04/06 13:29:16;;;;;;;;;;;27.50;91.70;;;;;;6711478;88;20059;-74
2024/04/06 13:39:19;;;;;;;;;;;27.40;91.70;;;;;;6715106;88;20498;-73
2024/04/06 13:49:20;;;;;;;;;;;27.30;91.60;;;;;;6713256;88;20046;-73
2024/04/06 13:59:22;;;;;;;;;;;27.30;91.80;;;;;;6714666;88;20062;-76
2024/04/06 14:09:25;;;;;;;;;;;27.30;91.10;;;;;;6767530;77;20753;-81
2024/04/06 14:19:27;;;;;;;;;;;27.60;91.00;;;;;;6759566;87;20150;-79
2024/04/06 14:29:27;;;;;;;;;;;27.40;90.70;;;;;;6750832;87;20055;-79
2024/04/06 14:39:27;;;;;;;;;;;26.80;90.70;;;;;;6750805;88;20067;-82
2024/04/06 14:49:28;;;;;;;;;;;27.20;90.70;;;;;;6761100;87;20046;-81
2024/04/06 14:59:28;;;;;;;;;;;27.70;90.70;;;;;;6756870;87;20140;-80
2024/04/06 15:09:29;;;;;;;;;;;27.40;90.60;;;;;;6760516;87;20092;-79
2024/04/06 15:19:30;;;;;;;;;;;27.20;90.40;;;;;;6765752;88;20061;-79
2024/04/06 15:29:30;;;;;;;;;;;26.70;91.30;;;;;;6758393;88;20065;-78
2024/04/06 15:39:32;;;;;;;;;;;26.30;91.50;;;;;;6760426;87;20061;-79
2024/04/06 15:49:32;;;;;;;;;;;26.00;91.20;;;;;;6754915;88;20127;-79
2024/04/06 15:59:33;;;;;;;;;;;26.10;91.70;;;;;;6756129;88;20597;-79
2024/04/06 16:09:34;;;;;;;;;;;26.10;91.20;;;;;;6739060;88;20051;-76
2024/04/06 16:19:35;;;;;;;;;;;26.00;91.30;;;;;;6740761;87;20497;-76
2024/04/06 16:29:35;;;;;;;;;;;25.80;90.90;;;;;;6758754;87;20055;-78
2024/04/06 16:39:36;;;;;;;;;;;25.70;91.00;;;;;;6758822;88;20069;-79
2024/04/06 16:49:37;;;;;;;;;;;25.40;91.70;;;;;;6760723;88;20094;-79
2024/04/06 16:59:37;;;;;;;;;;;25.30;91.60;;;;;;6739181;88;20128;-80
2024/04/06 17:09:38;;;;;;;;;;;25.20;91.50;;;;;;6736531;88;20088;-77
2024/04/06 17:19:39;;;;;;;;;;;25.00;91.30;;;;;;6741151;88;20050;-78
2024/04/06 17:29:39;;;;;;;;;;;24.90;91.40;;;;;;6741017;88;20515;-77
2024/04/06 17:39:40;;;;;;;;;;;24.70;91.50;;;;;;6745251;88;20068;-80
2024/04/06 17:49:41;;;;;;;;;;;24.50;91.80;;;;;;6769512;88;20087;-80
2024/04/06 17:59:41;;;;;;;;;;;24.10;92.10;;;;;;6772690;88;20493;-82
2024/04/06 18:19:00;;;;;;;;;;;23.30;93.40;;;;;;6797476;86;20161;-80
2024/04/06 18:29:01;;;;;;;;;;;23.10;93.30;;;;;;6781577;87;20130;-78
2024/04/06 18:39:01;;;;;;;;;;;22.80;93.60;;;;;;6774188;87;20467;-76
2024/04/06 18:49:02;;;;;;;;;;;22.70;93.20;;;;;;6768394;87;20174;-77
2024/04/06 18:59:03;;;;;;;;;;;22.50;93.50;;;;;;6771259;87;20098;-76
2024/04/06 19:09:05;;;;;;;;;;;22.50;93.20;;;;;;6769297;87;20065;-77
2024/04/06 19:19:05;;;;;;;;;;;22.40;93.00;;;;;;6774036;87;20085;-76
2024/04/06 19:29:06;;;;;;;;;;;22.20;93.40;;;;;;6760646;87;20076;-76
2024/04/06 19:39:07;;;;;;;;;;;21.90;93.60;;;;;;6755798;87;20124;-75
2024/04/06 19:49:07;;;;;;;;;;;21.90;93.20;;;;;;6758107;87;20081;-76
2024/04/06 19:59:08;;;;;;;;;;;21.90;93.00;;;;;;6756847;87;20078;-75
2024/04/06 20:09:09;;;;;;;;;;;21.80;93.10;;;;;;6740372;76;20083;-77
2024/04/06 20:19:10;;;;;;;;;;;21.60;93.30;;;;;;6709352;88;20497;-75
2024/04/06 20:29:10;;;;;;;;;;;21.50;93.30;;;;;;6708579;88;20094;-76
2024/04/06 20:39:13;;;;;;;;;;;21.30;93.90;;;;;;6714756;88;20059;-76
2024/04/06 20:49:14;;;;;;;;;;;20.90;94.30;;;;;;6715118;88;20108;-76
2024/04/06 20:59:14;;;;;;;;;;;20.70;94.60;;;;;;6714390;88;20248;-77
2024/04/06 21:09:15;;;;;;;;;;;20.60;94.60;;;;;;6715605;88;20398;-76
2024/04/06 21:19:15;;;;;;;;;;;20.30;94.80;;;;;;6713065;88;20067;-77
2024/04/06 21:29:16;;;;;;;;;;;20.60;94.00;;;;;;6711303;88;20067;-78
2024/04/06 21:39:16;;;;;;;;;;;20.60;93.70;;;;;;6711644;88;20535;-77
2024/04/06 21:49:16;;;;;;;;;;;20.50;94.00;;;;;;6711950;88;20479;-77
2024/04/06 21:59:17;;;;;;;;;;;20.40;93.50;;;;;;6715927;88;20080;-78
2024/04/06 22:09:17;;;;;;;;;;;20.20;93.30;;;;;;6716785;88;20508;-77
2024/04/06 22:19:18;;;;;;;;;;;20.50;92.20;;;;;;6713550;88;20051;-77
2024/04/06 22:29:18;;;;;;;;;;;20.60;91.60;;;;;;6711230;88;20099;-77
2024/04/06 22:39:21;;;;;;;;;;;20.80;91.20;;;;;;6713846;88;20058;-78
2024/04/06 22:49:21;;;;;;;;;;;20.90;90.90;;;;;;6708636;88;20074;-77
2024/04/06 22:59:22;;;;;;;;;;;21.20;90.10;;;;;;6715237;88;20242;-78
2024/04/06 23:09:22;;;;;;;;;;;21.40;90.10;;;;;;6712730;88;20590;-77
2024/04/06 23:19:23;;;;;;;;;;;21.70;88.80;;;;;;6709007;88;20100;-76
2024/04/06 23:29:23;;;;;;;;;;;22.10;87.40;;;;;;6712603;88;20091;-76
2024/04/06 23:39:27;;;;;;;;;;;22.10;87.30;;;;;;6714494;88;20054;-77
2024/04/06 23:49:28;;;;;;;;;;;22.10;87.20;;;;;;6714995;88;20701;-76
2024/04/06 23:59:29;;;;;;;;;;;22.20;87.50;;;;;;6712050;88;20092;-77
